Time,TemperatureF,DewpointF,PressureIn,WindDirection,WindDirectionDegrees,WindSpeedMPH,WindSpeedGustMPH,Humidity,HourlyPrecipIn,Conditions,Clouds,dailyrainin,SolarRadiationWatts/m^2,SoftwareType,DateUTC
2013-05-15 00:03:00,41.0,38.0,-100.00,SSE,159,4.0,9.0,88,0.00,,,0.03,0.000000,,2013-05-15 04:03:00,
2013-05-15 00:33:00,42.0,39.0,-100.00,SSE,165,6.0,10.0,89,0.00,,,0.03,0.000000,,2013-05-15 04:33:00,
2013-05-15 00:43:00,42.0,39.0,-100.00,SSE,165,6.0,10.0,89,0.00,,,0.03,0.000000,,2013-05-15 04:43:00,
2013-05-15 00:52:00,42.0,39.0,-100.00,SSE,165,6.0,10.0,89,0.00,,,0.03,0.000000,,2013-05-15 04:52:00,
2013-05-15 01:02:00,42.0,39.0,-100.00,SSE,165,6.0,10.0,89,0.00,,,0.03,0.000000,,2013-05-15 05:02:00,
2013-05-15 01:32:00,43.0,38.0,-100.00,SSE,167,7.0,11.0,83,0.00,,,0.03,0.000000,,2013-05-15 05:32:00,
2013-05-15 01:42:00,43.0,38.0,-100.00,SSE,167,7.0,11.0,83,0.00,,,0.03,0.000000,,2013-05-15 05:42:00,
2013-05-15 01:52:00,43.0,38.0,-100.00,SSE,167,7.0,11.0,83,0.00,,,0.03,0.000000,,2013-05-15 05:52:00,
2013-05-15 02:02:00,43.0,38.0,-100.00,SSE,167,7.0,11.0,83,0.00,,,0.03,0.000000,,2013-05-15 06:02:00,
2013-05-15 02:32:00,43.0,38.0,-100.00,South,175,7.0,11.0,82,0.00,,,0.03,0.000000,,2013-05-15 06:32:00,
2013-05-15 02:42:00,43.0,38.0,-100.00,South,175,7.0,11.0,82,0.00,,,0.03,0.000000,,2013-05-15 06:42:00,
2013-05-15 02:52:00,43.0,38.0,-100.00,South,175,7.0,11.0,82,0.00,,,0.03,0.000000,,2013-05-15 06:52:00,
2013-05-15 03:01:00,43.0,38.0,-100.00,South,175,7.0,11.0,82,0.00,,,0.03,0.000000,,2013-05-15 07:01:00,
2013-05-15 03:32:00,44.0,38.0,-100.00,South,175,6.0,9.0,80,0.00,,,0.03,0.000000,,2013-05-15 07:32:00,
2013-05-15 03:42:00,44.0,38.0,-100.00,South,175,6.0,9.0,80,0.00,,,0.03,0.000000,,2013-05-15 07:42:00,
2013-05-15 03:52:00,44.0,38.0,-100.00,South,175,6.0,9.0,80,0.00,,,0.03,0.000000,,2013-05-15 07:52:00,
2013-05-15 04:02:00,44.0,38.0,-100.00,South,175,6.0,9.0,80,0.00,,,0.03,0.000000,,2013-05-15 08:02:00,
2013-05-15 04:32:00,45.0,37.0,-100.00,South,185,7.0,10.0,72,0.00,,,0.03,0.000000,,2013-05-15 08:32:00,
2013-05-15 04:42:00,45.0,37.0,-100.00,South,185,7.0,10.0,72,0.00,,,0.03,0.000000,,2013-05-15 08:42:00,
2013-05-15 04:53:00,45.0,37.0,-100.00,South,185,7.0,10.0,72,0.00,,,0.03,0.000000,,2013-05-15 08:53:00,
2013-05-15 05:01:00,45.0,37.0,-100.00,South,185,7.0,10.0,72,0.00,,,0.03,0.000000,,2013-05-15 09:01:00,
2013-05-15 05:33:00,44.0,36.0,-100.00,SSE,168,6.0,11.0,72,0.00,,,0.03,0.000000,,2013-05-15 09:33:00,
2013-05-15 05:42:00,44.0,36.0,-100.00,SSE,168,6.0,11.0,72,0.00,,,0.03,0.000000,,2013-05-15 09:42:00,
2013-05-15 05:53:00,44.0,36.0,-100.00,SSE,168,6.0,11.0,72,0.00,,,0.03,0.000000,,2013-05-15 09:53:00,
2013-05-15 06:02:00,44.0,36.0,-100.00,SSE,168,6.0,11.0,72,0.00,,,0.03,0.000000,,2013-05-15 10:02:00,
2013-05-15 06:08:00,44.0,37.0,-100.00,SSE,165,6.0,10.0,76,0.00,,,0.03,1.000000,,2013-05-15 10:08:00,
2013-05-15 06:32:00,44.0,37.0,-100.00,SSE,165,6.0,10.0,76,0.00,,,0.03,1.000000,,2013-05-15 10:32:00,
2013-05-15 06:43:00,44.0,37.0,-100.00,SSE,165,6.0,10.0,76,0.00,,,0.03,1.000000,,2013-05-15 10:43:00,
2013-05-15 06:53:00,44.0,37.0,-100.00,SSE,165,6.0,10.0,76,0.00,,,0.03,1.000000,,2013-05-15 10:53:00,
2013-05-15 07:08:00,45.0,38.0,-100.00,South,171,5.0,13.0,75,0.00,,,0.03,12.000000,,2013-05-15 11:08:00,
2013-05-15 07:40:00,45.0,38.0,-100.00,South,171,5.0,13.0,75,0.00,,,0.03,12.000000,,2013-05-15 11:40:00,
2013-05-15 07:50:00,45.0,38.0,-100.00,South,171,5.0,13.0,75,0.00,,,0.03,12.000000,,2013-05-15 11:50:00,
2013-05-15 08:01:00,45.0,38.0,-100.00,South,171,5.0,13.0,75,0.00,,,0.03,12.000000,,2013-05-15 12:01:00,
2013-05-15 08:08:00,46.0,37.0,-100.00,SSW,193,8.0,14.0,72,0.00,,,0.03,46.000000,,2013-05-15 12:08:00,
2013-05-15 08:38:00,46.0,37.0,-100.00,SSW,193,8.0,14.0,72,0.00,,,0.03,46.000000,,2013-05-15 12:38:00,
2013-05-15 08:49:00,46.0,37.0,-100.00,SSW,193,8.0,14.0,72,0.00,,,0.03,46.000000,,2013-05-15 12:49:00,
2013-05-15 08:57:00,46.0,37.0,-100.00,SSW,193,8.0,14.0,72,0.00,,,0.03,46.000000,,2013-05-15 12:57:00,
2013-05-15 10:08:00,57.0,50.0,-100.00,SW,224,11.0,19.0,76,-99.99,,,0.04,465.000000,,2013-05-15 14:08:00,
2013-05-15 10:39:00,57.0,50.0,-100.00,SW,224,11.0,19.0,76,-99.99,,,0.04,465.000000,,2013-05-15 14:39:00,
2013-05-15 10:52:00,57.0,50.0,-100.00,SW,224,11.0,19.0,76,-99.99,,,0.04,465.000000,,2013-05-15 14:52:00,
2013-05-15 11:08:00,56.0,52.0,-100.00,WSW,246,8.0,15.0,85,0.01,,,0.05,213.000000,,2013-05-15 15:08:00,
2013-05-15 11:40:00,56.0,52.0,-100.00,WSW,246,8.0,15.0,85,0.01,,,0.05,213.000000,,2013-05-15 15:40:00,
2013-05-15 11:49:00,56.0,52.0,-100.00,WSW,246,8.0,15.0,85,0.01,,,0.05,213.000000,,2013-05-15 15:49:00,
2013-05-15 12:02:00,56.0,52.0,-100.00,WSW,246,8.0,15.0,85,0.01,,,0.05,213.000000,,2013-05-15 16:02:00,
2013-05-15 12:40:00,61.0,58.0,-100.00,West,265,10.0,28.0,90,0.05,,,0.10,149.000000,,2013-05-15 16:40:00,
2013-05-15 12:52:00,61.0,58.0,-100.00,West,265,10.0,28.0,90,0.05,,,0.10,149.000000,,2013-05-15 16:52:00,
2013-05-15 14:08:00,74.0,58.0,-100.00,WSW,256,15.0,27.0,58,-99.99,,,0.10,867.000000,,2013-05-15 18:08:00,
2013-05-15 14:38:00,74.0,58.0,-100.00,WSW,256,15.0,27.0,58,-99.99,,,0.10,867.000000,,2013-05-15 18:38:00,
2013-05-15 14:49:00,74.0,58.0,-100.00,WSW,256,15.0,27.0,58,-99.99,,,0.10,867.000000,,2013-05-15 18:49:00,
2013-05-15 14:58:00,74.0,58.0,-100.00,WSW,256,15.0,27.0,58,-99.99,,,0.10,867.000000,,2013-05-15 18:58:00,
2013-05-15 15:08:00,75.0,56.0,-100.00,West,273,13.0,29.0,51,0.00,,,0.10,749.000000,,2013-05-15 19:08:00,
2013-05-15 15:39:00,75.0,56.0,-100.00,West,273,13.0,29.0,51,0.00,,,0.10,749.000000,,2013-05-15 19:39:00,
2013-05-15 15:50:00,75.0,56.0,-100.00,West,273,13.0,29.0,51,0.00,,,0.10,749.000000,,2013-05-15 19:50:00,
2013-05-15 15:58:00,75.0,56.0,-100.00,West,273,13.0,29.0,51,0.00,,,0.10,749.000000,,2013-05-15 19:58:00,
2013-05-15 16:08:00,77.0,57.0,-100.00,West,281,9.0,29.0,50,0.00,,,0.10,584.000000,,2013-05-15 20:08:00,
2013-05-15 16:40:00,77.0,57.0,-100.00,West,281,9.0,29.0,50,0.00,,,0.10,584.000000,,2013-05-15 20:40:00,
2013-05-15 16:47:00,77.0,57.0,-100.00,West,281,9.0,29.0,50,0.00,,,0.10,584.000000,,2013-05-15 20:47:00,
2013-05-15 16:59:00,77.0,57.0,-100.00,West,281,9.0,29.0,50,0.00,,,0.10,584.000000,,2013-05-15 20:59:00,
2013-05-15 17:08:00,78.0,56.0,-100.00,West,281,11.0,25.0,46,0.00,,,-99.99,380.000000,,2013-05-15 21:08:00,
2013-05-15 17:53:00,78.0,56.0,-100.00,West,281,11.0,25.0,46,0.00,,,-99.99,380.000000,,2013-05-15 21:53:00,
2013-05-15 18:01:00,78.0,56.0,-100.00,West,281,11.0,25.0,46,0.00,,,-99.99,380.000000,,2013-05-15 22:01:00,
2013-05-15 18:08:00,78.0,54.0,-100.00,West,278,11.0,26.0,44,0.00,,,0.10,327.000000,,2013-05-15 22:08:00,
2013-05-15 18:42:00,78.0,54.0,-100.00,West,278,11.0,26.0,44,0.00,,,0.10,327.000000,,2013-05-15 22:42:00,
2013-05-15 18:53:00,78.0,54.0,-100.00,West,278,11.0,26.0,44,0.00,,,0.10,327.000000,,2013-05-15 22:53:00,
2013-05-15 19:00:00,78.0,54.0,-100.00,West,278,11.0,26.0,44,0.00,,,0.10,327.000000,,2013-05-15 23:00:00,
2013-05-15 19:40:00,77.0,53.0,-100.00,West,278,8.0,23.0,43,0.00,,,0.10,176.000000,,2013-05-15 23:40:00,
2013-05-15 19:50:00,77.0,53.0,-100.00,West,278,8.0,23.0,43,0.00,,,0.10,176.000000,,2013-05-15 23:50:00,
2013-05-15 20:01:00,77.0,53.0,-100.00,West,278,8.0,23.0,43,0.00,,,0.10,176.000000,,2013-05-16 00:01:00,
2013-05-15 21:08:00,69.0,46.0,-100.00,NW,318,4.0,15.0,43,-99.99,,,0.07,3.000000,,2013-05-16 01:08:00,
2013-05-15 21:40:00,69.0,46.0,-100.00,NW,318,4.0,15.0,43,-99.99,,,0.07,3.000000,,2013-05-16 01:40:00,
2013-05-15 21:50:00,69.0,46.0,-100.00,NW,318,4.0,15.0,43,-99.99,,,0.07,3.000000,,2013-05-16 01:50:00,
2013-05-15 22:02:00,69.0,46.0,-100.00,NW,318,4.0,15.0,43,-99.99,,,0.07,3.000000,,2013-05-16 02:02:00,
2013-05-15 22:40:00,67.0,47.0,-100.00,NW,322,4.0,8.0,48,0.00,,,0.07,0.000000,,2013-05-16 02:40:00,
2013-05-15 22:49:00,67.0,47.0,-100.00,NW,322,4.0,8.0,48,0.00,,,0.07,0.000000,,2013-05-16 02:49:00,
2013-05-15 23:07:00,67.0,47.0,-100.00,NW,322,4.0,8.0,48,0.00,,,0.07,0.000000,,2013-05-16 03:07:00,
2013-05-15 23:40:00,64.0,45.0,-100.00,WNW,287,3.0,9.0,50,0.00,,,0.07,0.000000,,2013-05-16 03:40:00,
2013-05-15 23:47:00,64.0,45.0,-100.00,WNW,287,3.0,9.0,50,0.00,,,0.07,0.000000,,2013-05-16 03:47:00,
2013-05-15 23:58:00,64.0,45.0,-100.00,WNW,287,3.0,9.0,50,0.00,,,0.07,0.000000,,2013-05-16 03:58:00,